createdAt,value
2022-10-17T00:01:37.178Z,15.20
2022-10-17T00:07:02.137Z,15.16
2022-10-17T00:12:29.915Z,15.06
2022-10-17T00:17:55.428Z,15.02
2022-10-17T00:23:20.145Z,15.04
2022-10-17T00:28:48.263Z,15.03
2022-10-17T00:34:13.179Z,15.05
2022-10-17T00:39:44.142Z,15.04
2022-10-17T00:45:31.171Z,15.05
2022-10-17T00:51:00.175Z,15.10
2022-10-17T00:56:26.183Z,15.11
2022-10-17T01:01:53.191Z,15.08
2022-10-17T01:07:18.180Z,15.07
2022-10-17T01:12:48.197Z,15.11
2022-10-17T01:18:26.171Z,15.15
2022-10-17T01:24:17.489Z,15.18
2022-10-17T01:29:53.179Z,15.21
2022-10-17T01:35:27.322Z,15.27
2022-10-17T01:41:05.195Z,15.27
2022-10-17T01:46:37.218Z,15.23
2022-10-17T01:52:09.226Z,15.23
2022-10-17T01:57:40.218Z,15.24
2022-10-17T02:03:09.246Z,15.23
2022-10-17T02:08:51.604Z,15.17
2022-10-17T02:14:32.238Z,15.16
2022-10-17T02:20:08.269Z,15.12
2022-10-17T02:25:45.213Z,15.07
2022-10-17T02:31:14.499Z,15.03
2022-10-17T02:36:43.214Z,15.05
2022-10-17T02:42:21.278Z,15.04
2022-10-17T02:47:54.251Z,15.03
2022-10-17T02:53:22.253Z,14.98
2022-10-17T02:58:52.240Z,14.99
2022-10-17T03:04:25.263Z,15.02
2022-10-17T03:09:51.321Z,15.04
2022-10-17T03:15:18.464Z,15.08
2022-10-17T03:20:43.247Z,15.07
2022-10-17T03:26:10.274Z,15.16
2022-10-17T03:31:38.259Z,15.16
2022-10-17T03:37:03.257Z,15.14
2022-10-17T03:42:36.274Z,15.24
2022-10-17T03:48:03.255Z,15.23
2022-10-17T03:53:27.254Z,15.35
2022-10-17T03:58:52.268Z,15.65
2022-10-17T04:04:21.309Z,15.66
2022-10-17T04:09:46.283Z,15.57
2022-10-17T04:15:13.464Z,15.43
2022-10-17T04:20:41.302Z,15.31
2022-10-17T04:26:05.305Z,15.23
2022-10-17T04:31:30.315Z,15.16
2022-10-17T04:37:15.330Z,15.12
2022-10-17T04:42:48.331Z,15.09
2022-10-17T04:48:20.301Z,15.04
2022-10-17T04:53:48.314Z,15.00
2022-10-17T04:59:13.313Z,14.89
2022-10-17T05:04:43.307Z,14.87
2022-10-17T05:10:11.344Z,14.89
2022-10-17T05:15:38.321Z,14.90
2022-10-17T05:21:04.411Z,14.90
2022-10-17T05:26:32.360Z,14.95
2022-10-17T05:31:58.374Z,15.03
2022-10-17T05:37:25.328Z,15.10
2022-10-17T05:43:04.391Z,15.17
2022-10-17T05:48:35.477Z,15.22
2022-10-17T05:54:00.385Z,15.27
2022-10-17T05:59:28.373Z,15.38
2022-10-17T06:05:03.611Z,15.39
2022-10-17T06:10:29.396Z,15.49
2022-10-17T06:15:58.386Z,15.57
2022-10-17T06:21:24.425Z,15.69
2022-10-17T06:26:56.439Z,15.82
2022-10-17T06:32:23.396Z,16.10
2022-10-17T06:37:48.379Z,16.21
2022-10-17T06:43:25.596Z,16.22
2022-10-17T06:49:13.370Z,16.21
2022-10-17T06:54:43.432Z,16.22
2022-10-17T07:00:22.401Z,16.23
2022-10-17T07:05:51.411Z,16.27
2022-10-17T07:11:21.392Z,16.30
2022-10-17T07:16:46.782Z,16.38
2022-10-17T07:22:17.445Z,16.44
2022-10-17T07:27:48.981Z,16.56
2022-10-17T07:33:13.433Z,16.60
2022-10-17T07:38:40.440Z,16.74
2022-10-17T07:44:05.424Z,16.81
2022-10-17T07:49:37.402Z,16.91
2022-10-17T07:55:05.418Z,17.00
2022-10-17T08:00:30.454Z,17.14
2022-10-17T08:05:56.428Z,17.29
2022-10-17T08:11:24.443Z,17.49
2022-10-17T08:16:50.430Z,17.67
2022-10-17T08:22:15.904Z,17.86
2022-10-17T08:27:43.455Z,17.99
2022-10-17T08:33:07.485Z,18.18
2022-10-17T08:38:35.417Z,18.31
2022-10-17T08:44:17.447Z,18.48
2022-10-17T08:49:53.475Z,18.60
2022-10-17T09:00:48.454Z,18.89
2022-10-17T09:06:27.471Z,19.02
2022-10-17T09:12:04.456Z,19.09
2022-10-17T09:17:46.483Z,19.29
2022-10-17T09:23:18.469Z,19.54
2022-10-17T09:28:48.514Z,19.69
2022-10-17T09:34:26.737Z,19.75
2022-10-17T09:39:51.463Z,19.95
2022-10-17T09:45:31.689Z,20.15
2022-10-17T09:51:14.594Z,20.38
2022-10-17T09:57:07.492Z,20.59
2022-10-17T10:02:38.493Z,20.84
2022-10-17T10:08:15.504Z,21.04
2022-10-17T10:13:42.501Z,21.27
2022-10-17T10:19:09.180Z,21.46
2022-10-17T10:24:36.522Z,21.61
2022-10-17T10:30:02.539Z,21.77
2022-10-17T10:35:36.539Z,21.96
2022-10-17T10:41:05.691Z,22.16
2022-10-17T10:46:36.529Z,22.36
2022-10-17T10:52:02.535Z,22.59
2022-10-17T10:57:36.552Z,22.75
2022-10-17T11:03:12.643Z,22.89
2022-10-17T11:08:45.555Z,23.00
2022-10-17T11:14:19.624Z,23.08
2022-10-17T11:19:50.577Z,23.24
2022-10-17T11:25:28.678Z,23.43
2022-10-17T11:31:05.728Z,23.60
2022-10-17T11:36:38.571Z,23.77
2022-10-17T11:42:15.645Z,23.98
2022-10-17T11:47:54.067Z,24.16
2022-10-17T11:53:21.577Z,24.31
2022-10-17T11:58:51.604Z,24.31
2022-10-17T12:04:35.617Z,24.36
2022-10-17T12:10:07.624Z,24.29
2022-10-17T12:15:46.813Z,24.30
2022-10-17T12:21:14.591Z,24.37
2022-10-17T12:26:42.607Z,24.49
2022-10-17T12:32:21.599Z,24.47
2022-10-17T12:38:30.612Z,24.49
2022-10-17T12:44:06.629Z,24.59
2022-10-17T12:49:49.692Z,24.69
2022-10-17T12:55:25.604Z,24.83
2022-10-17T13:01:23.913Z,24.97
2022-10-17T13:06:46.626Z,25.05
2022-10-17T13:12:10.838Z,25.12
2022-10-17T13:17:40.657Z,25.25
2022-10-17T13:23:07.698Z,25.24
2022-10-17T13:28:39.234Z,25.29
2022-10-17T13:34:12.651Z,25.57
2022-10-17T13:39:55.375Z,25.60
2022-10-17T13:45:32.722Z,25.78
2022-10-17T13:51:02.791Z,25.77
2022-10-17T13:56:37.028Z,25.92
2022-10-17T14:02:04.675Z,26.03
2022-10-17T14:08:09.348Z,26.02
2022-10-17T14:13:31.663Z,26.05
2022-10-17T14:19:02.764Z,26.20
2022-10-17T14:24:38.688Z,26.33
2022-10-17T14:30:09.688Z,26.26
2022-10-17T14:35:41.850Z,26.25
2022-10-17T14:46:55.725Z,25.88
2022-10-17T14:52:49.937Z,25.88
2022-10-17T14:58:27.698Z,25.71
2022-10-17T15:03:51.701Z,25.75
2022-10-17T15:09:19.801Z,25.81
2022-10-17T15:14:43.749Z,25.79
2022-10-17T15:20:08.725Z,25.69
2022-10-17T15:25:35.759Z,25.55
2022-10-17T15:31:00.728Z,25.42
2022-10-17T15:36:39.748Z,25.18
2022-10-17T15:42:07.739Z,25.01
2022-10-17T15:47:39.747Z,24.82
2022-10-17T15:53:04.787Z,24.65
2022-10-17T15:58:34.767Z,24.42
2022-10-17T16:03:59.778Z,24.30
2022-10-17T16:09:24.802Z,24.10
2022-10-17T16:20:39.834Z,23.59
2022-10-17T16:26:05.147Z,23.33
2022-10-17T16:31:42.948Z,23.13
2022-10-17T16:37:07.830Z,22.86
2022-10-17T16:42:38.789Z,22.59
2022-10-17T16:48:05.776Z,22.31
2022-10-17T16:53:29.831Z,22.09
2022-10-17T16:58:55.874Z,21.89
2022-10-17T17:04:22.812Z,21.71
2022-10-17T17:09:48.818Z,21.52
2022-10-17T17:15:12.821Z,21.35
2022-10-17T17:20:41.914Z,21.05
2022-10-17T17:26:14.000Z,20.81
2022-10-17T17:31:40.818Z,20.60
2022-10-17T17:37:07.952Z,20.48
2022-10-17T17:42:32.881Z,20.30
2022-10-17T17:47:59.821Z,20.14
2022-10-17T17:53:27.846Z,20.02
2022-10-17T17:58:53.862Z,19.96
2022-10-17T18:04:18.891Z,19.80
2022-10-17T18:09:45.961Z,19.82
2022-10-17T18:15:10.955Z,19.80
2022-10-17T18:20:35.857Z,19.64
2022-10-17T18:26:07.851Z,19.56
2022-10-17T18:31:38.868Z,19.48
2022-10-17T18:37:05.921Z,19.27
2022-10-17T18:42:39.902Z,19.18
2022-10-17T18:48:04.897Z,19.18
2022-10-17T18:53:28.862Z,19.07
2022-10-17T18:58:56.874Z,18.98
2022-10-17T19:04:20.896Z,18.98
2022-10-17T19:09:45.981Z,18.94
2022-10-17T19:15:12.909Z,18.91
2022-10-17T19:20:37.999Z,18.84
2022-10-17T19:26:02.081Z,18.83
2022-10-17T19:31:29.885Z,18.79
2022-10-17T19:36:55.948Z,18.77
2022-10-17T19:42:26.985Z,18.70
2022-10-17T19:47:53.936Z,18.60
2022-10-17T19:53:17.948Z,18.48
2022-10-17T19:58:50.089Z,18.38
2022-10-17T20:04:16.944Z,18.28
2022-10-17T20:09:42.029Z,18.20
2022-10-17T20:15:05.941Z,18.08
2022-10-17T20:20:33.925Z,18.00
2022-10-17T20:26:06.686Z,17.92
2022-10-17T20:31:37.967Z,17.92
2022-10-17T20:37:05.022Z,17.92
2022-10-17T20:42:37.966Z,17.93
2022-10-17T20:48:02.956Z,17.90
2022-10-17T20:53:36.970Z,17.85
2022-10-17T20:59:02.978Z,17.82
2022-10-17T21:04:45.479Z,17.78
2022-10-17T21:10:34.320Z,17.73
2022-10-17T21:15:57.987Z,17.67
2022-10-17T21:21:25.967Z,17.63
2022-10-17T21:26:54.057Z,17.54
2022-10-17T21:32:32.096Z,17.48
2022-10-17T21:38:04.042Z,17.44
2022-10-17T21:43:37.989Z,17.44
2022-10-17T21:49:05.889Z,17.39
2022-10-17T21:54:32.855Z,17.34
2022-10-17T21:59:59.991Z,17.28
2022-10-17T22:05:31.018Z,17.18
2022-10-17T22:10:55.996Z,17.13
2022-10-17T22:16:24.355Z,17.08
2022-10-17T22:21:49.971Z,17.03
2022-10-17T22:27:17.045Z,17.00
2022-10-17T22:32:45.067Z,16.90
2022-10-17T22:38:09.046Z,16.82
2022-10-17T22:43:34.045Z,16.73
2022-10-17T22:49:04.198Z,16.69
2022-10-17T22:54:29.033Z,16.63
2022-10-17T22:59:53.018Z,16.59
2022-10-17T23:05:21.051Z,16.56
2022-10-17T23:10:45.085Z,16.50
2022-10-17T23:16:10.069Z,16.48
2022-10-17T23:21:37.079Z,16.41
2022-10-17T23:27:02.049Z,16.34
2022-10-17T23:32:26.087Z,16.28
2022-10-17T23:37:53.065Z,16.23
2022-10-17T23:43:17.058Z,16.19
2022-10-17T23:48:42.082Z,16.16
2022-10-17T23:54:09.185Z,16.06
2022-10-17T23:59:34.094Z,15.97
